createdAt,value
2022-08-26T00:01:54.248Z,99840.38
2022-08-26T00:04:23.829Z,99828.97
2022-08-26T00:06:51.792Z,99831.69
2022-08-26T00:09:19.376Z,99828.09
2022-08-26T00:11:46.608Z,99830.84
2022-08-26T00:14:16.533Z,99829.22
2022-08-26T00:16:47.838Z,99829.28
2022-08-26T00:19:20.963Z,99824.91
2022-08-26T00:21:50.078Z,99827.63
2022-08-26T00:24:20.492Z,99821.53
2022-08-26T00:26:49.247Z,99830.38
2022-08-26T00:29:17.293Z,99822.63
2022-08-26T00:31:45.092Z,99831.47
2022-08-26T00:34:13.912Z,99836.69
2022-08-26T00:36:41.177Z,99826.09
2022-08-26T00:39:09.397Z,99833.03
2022-08-26T00:41:40.518Z,99808.59
2022-08-26T00:44:11.230Z,99835.47
2022-08-26T00:46:49.463Z,99835.47
2022-08-26T00:49:42.992Z,99834.53
2022-08-26T00:52:15.983Z,99818.94
2022-08-26T00:55:00.805Z,99828.44
2022-08-26T00:57:32.097Z,99833.94
2022-08-26T01:00:01.523Z,99833.88
2022-08-26T01:02:29.492Z,99827.78
2022-08-26T01:05:00.905Z,99825.97
2022-08-26T01:07:32.309Z,99829.56
2022-08-26T01:10:05.899Z,99814.84
2022-08-26T01:12:40.163Z,99829.69
2022-08-26T01:15:10.384Z,99828.84
2022-08-26T01:17:39.699Z,99823.53
2022-08-26T01:20:17.987Z,99830.53
2022-08-26T01:22:54.165Z,99827.88
2022-08-26T01:25:24.253Z,99832.41
2022-08-26T01:27:52.674Z,99819.44
2022-08-26T01:30:21.170Z,99827.19
2022-08-26T01:32:50.616Z,99830.78
2022-08-26T01:35:18.472Z,99831.72
2022-08-26T01:37:48.225Z,99831.59
2022-08-26T01:40:20.597Z,99828.06
2022-08-26T01:42:49.325Z,99825.63
2022-08-26T01:45:26.324Z,99829.00
2022-08-26T01:47:57.389Z,99819.38
2022-08-26T01:50:30.143Z,99818.59
2022-08-26T01:53:02.580Z,99825.34
2022-08-26T01:55:33.055Z,99816.56
2022-08-26T01:58:05.658Z,99827.50
2022-08-26T02:00:33.694Z,99826.56
2022-08-26T02:03:21.698Z,99830.09
2022-08-26T02:06:01.172Z,99817.09
2022-08-26T02:08:50.933Z,99829.97
2022-08-26T02:11:18.552Z,99835.44
2022-08-26T02:13:49.548Z,99838.09
2022-08-26T02:16:22.040Z,99836.34
2022-08-26T02:18:50.628Z,99838.00
2022-08-26T02:21:20.688Z,99839.81
2022-08-26T02:23:47.797Z,99831.00
2022-08-26T02:26:19.259Z,99836.94
2022-08-26T02:29:12.628Z,99841.25
2022-08-26T02:31:42.096Z,99831.63
2022-08-26T02:34:20.024Z,99837.53
2022-08-26T02:36:47.443Z,99833.06
2022-08-26T02:39:19.521Z,99825.97
2022-08-26T02:41:50.147Z,99832.66
2022-08-26T02:44:17.677Z,99837.00
2022-08-26T02:46:46.837Z,99835.91
2022-08-26T02:49:15.696Z,99826.19
2022-08-26T02:51:44.398Z,99832.84
2022-08-26T02:54:12.777Z,99842.09
2022-08-26T02:56:40.315Z,99845.28
2022-08-26T02:59:07.945Z,99849.34
2022-08-26T03:01:37.088Z,99835.00
2022-08-26T03:04:07.104Z,99847.53
2022-08-26T03:06:34.331Z,99842.50
2022-08-26T03:09:01.540Z,99840.66
2022-08-26T03:11:33.051Z,99836.31
2022-08-26T03:14:01.816Z,99847.78
2022-08-26T03:16:37.882Z,99832.88
2022-08-26T03:19:08.178Z,99848.84
2022-08-26T03:21:38.197Z,99847.81
2022-08-26T03:24:05.985Z,99849.25
2022-08-26T03:26:33.179Z,99848.94
2022-08-26T03:29:18.750Z,99832.84
2022-08-26T03:31:46.955Z,99838.81
2022-08-26T03:34:14.851Z,99854.03
2022-08-26T03:36:42.464Z,99850.47
2022-08-26T03:39:12.070Z,99842.91
2022-08-26T03:41:40.686Z,99837.16
2022-08-26T03:44:11.497Z,99839.91
2022-08-26T03:46:39.659Z,99847.78
2022-08-26T03:49:07.685Z,99844.38
2022-08-26T03:51:38.680Z,99839.88
2022-08-26T03:54:08.365Z,99846.34
2022-08-26T03:56:36.850Z,99852.78
2022-08-26T03:59:04.975Z,99843.19
2022-08-26T04:01:35.264Z,99857.22
2022-08-26T04:04:03.255Z,99850.28
2022-08-26T04:06:32.121Z,99860.28
2022-08-26T04:09:02.073Z,99856.25
2022-08-26T04:11:34.206Z,99849.66
2022-08-26T04:14:05.700Z,99851.38
2022-08-26T04:16:33.085Z,99847.22
2022-08-26T04:19:00.999Z,99846.13
2022-08-26T04:21:29.020Z,99854.56
2022-08-26T04:23:56.792Z,99850.25
2022-08-26T04:26:26.090Z,99846.38
2022-08-26T04:28:54.752Z,99849.41
2022-08-26T04:31:22.386Z,99847.47
2022-08-26T04:33:50.542Z,99851.31
2022-08-26T04:36:20.204Z,99848.19
2022-08-26T04:38:48.569Z,99849.81
2022-08-26T04:41:16.813Z,99844.06
2022-08-26T04:43:46.625Z,99847.75
2022-08-26T04:46:22.750Z,99847.22
2022-08-26T04:48:51.943Z,99849.84
2022-08-26T04:51:22.274Z,99854.28
2022-08-26T04:56:53.453Z,99832.50
2022-08-26T04:59:20.675Z,99840.56
2022-08-26T05:01:54.154Z,99844.13
2022-08-26T05:04:22.320Z,99844.78
2022-08-26T05:06:50.210Z,99830.63
2022-08-26T05:09:21.048Z,99848.53
2022-08-26T05:11:52.042Z,99848.84
2022-08-26T05:14:25.727Z,99851.56
2022-08-26T05:16:54.079Z,99856.94
2022-08-26T05:19:21.260Z,99857.47
2022-08-26T05:21:48.805Z,99862.47
2022-08-26T05:24:18.672Z,99859.78
2022-08-26T05:26:48.102Z,99864.31
2022-08-26T05:29:16.074Z,99860.63
2022-08-26T05:31:44.160Z,99860.28
2022-08-26T05:34:11.301Z,99855.09
2022-08-26T05:36:39.291Z,99856.84
2022-08-26T05:39:07.371Z,99860.25
2022-08-26T05:41:38.708Z,99853.72
2022-08-26T05:44:07.582Z,99861.69
2022-08-26T05:46:37.037Z,99863.56
2022-08-26T05:49:06.558Z,99867.91
2022-08-26T05:51:45.353Z,99875.84
2022-08-26T05:54:13.543Z,99873.09
2022-08-26T05:56:42.427Z,99871.47
2022-08-26T05:59:14.692Z,99864.56
2022-08-26T06:01:43.933Z,99863.00
2022-08-26T06:04:11.770Z,99862.00
2022-08-26T06:06:42.871Z,99865.97
2022-08-26T06:09:11.453Z,99870.25
2022-08-26T06:11:39.197Z,99861.44
2022-08-26T06:14:08.056Z,99863.56
2022-08-26T06:16:38.742Z,99866.81
2022-08-26T06:19:11.608Z,99868.94
2022-08-26T06:21:42.588Z,99869.25
2022-08-26T06:24:31.106Z,99863.97
2022-08-26T06:27:02.040Z,99866.94
2022-08-26T06:29:33.308Z,99865.25
2022-08-26T06:32:02.977Z,99864.03
2022-08-26T06:34:30.920Z,99860.03
2022-08-26T06:37:03.269Z,99864.03
2022-08-26T06:39:31.710Z,99855.63
2022-08-26T06:42:01.100Z,99857.19
2022-08-26T06:44:34.158Z,99852.66
2022-08-26T06:47:01.618Z,99857.81
2022-08-26T06:49:28.906Z,99848.88
2022-08-26T06:51:59.899Z,99846.97
2022-08-26T06:54:30.438Z,99843.25
2022-08-26T06:56:58.089Z,99848.03
2022-08-26T06:59:25.874Z,99856.69
2022-08-26T07:01:53.329Z,99855.84
2022-08-26T07:04:23.368Z,99850.94
2022-08-26T07:06:53.567Z,99865.59
2022-08-26T07:09:22.933Z,99856.00
2022-08-26T07:11:51.623Z,99841.09
2022-08-26T07:14:21.474Z,99861.53
2022-08-26T07:16:50.459Z,99847.06
2022-08-26T07:19:30.132Z,99844.25
2022-08-26T07:22:04.220Z,99848.72
2022-08-26T07:24:38.673Z,99859.44
2022-08-26T07:27:08.883Z,99860.59
2022-08-26T07:29:39.069Z,99859.78
2022-08-26T07:32:06.964Z,99843.97
2022-08-26T07:34:34.325Z,99856.78
2022-08-26T07:37:02.028Z,99848.25
2022-08-26T07:39:31.686Z,99857.66
2022-08-26T07:42:01.724Z,99852.38
2022-08-26T07:44:38.304Z,99848.84
2022-08-26T07:47:10.260Z,99858.94
2022-08-26T07:49:55.659Z,99857.59
2022-08-26T07:52:26.602Z,99859.03
2022-08-26T07:54:58.393Z,99863.69
2022-08-26T07:57:26.502Z,99850.47
2022-08-26T07:59:55.027Z,99841.84
2022-08-26T08:02:24.642Z,99850.25
2022-08-26T08:04:52.435Z,99844.47
2022-08-26T08:07:19.700Z,99851.69
2022-08-26T08:09:49.791Z,99847.09
2022-08-26T08:12:18.457Z,99846.25
2022-08-26T08:14:46.981Z,99826.31
2022-08-26T08:17:16.503Z,99847.81
2022-08-26T08:19:43.670Z,99843.47
2022-08-26T08:22:17.948Z,99840.88
2022-08-26T08:24:50.038Z,99838.09
2022-08-26T08:27:23.807Z,99840.13
2022-08-26T08:29:57.007Z,99839.31
2022-08-26T08:32:24.211Z,99838.00
2022-08-26T08:34:51.674Z,99834.22
2022-08-26T08:37:19.268Z,99846.22
2022-08-26T08:39:46.310Z,99837.00
2022-08-26T08:42:31.128Z,99842.94
2022-08-26T08:44:59.620Z,99839.53
2022-08-26T08:47:36.043Z,99833.31
2022-08-26T08:50:23.936Z,99839.06
2022-08-26T08:53:17.826Z,99829.13
2022-08-26T08:56:23.756Z,99828.19
2022-08-26T08:58:57.521Z,99830.09
2022-08-26T09:01:36.574Z,99826.16
2022-08-26T09:04:26.836Z,99821.81
2022-08-26T09:09:46.233Z,99845.56
2022-08-26T09:12:20.538Z,99828.25
2022-08-26T09:15:30.424Z,99821.47
2022-08-26T09:18:10.870Z,99829.84
2022-08-26T09:20:55.494Z,99819.19
2022-08-26T09:23:22.874Z,99820.84
2022-08-26T09:28:24.449Z,99816.78
2022-08-26T09:31:24.030Z,99822.66
2022-08-26T09:34:17.026Z,99805.28
2022-08-26T09:36:49.342Z,99815.84
2022-08-26T09:39:28.284Z,99818.06
2022-08-26T09:42:21.202Z,99809.75
2022-08-26T09:45:06.594Z,99821.00
2022-08-26T09:47:39.037Z,99815.88
2022-08-26T09:50:32.404Z,99816.75
2022-08-26T09:53:09.728Z,99809.28
2022-08-26T09:55:39.614Z,99803.03
2022-08-26T09:58:07.921Z,99808.34
2022-08-26T10:00:40.279Z,99784.69
2022-08-26T10:03:12.061Z,99806.84
2022-08-26T10:05:54.722Z,99810.72
2022-08-26T10:08:48.397Z,99806.06
2022-08-26T10:11:41.786Z,99797.66
2022-08-26T10:14:20.816Z,99798.88
2022-08-26T10:17:01.495Z,99789.19
2022-08-26T10:19:53.595Z,99776.59
2022-08-26T10:22:45.839Z,99795.31
2022-08-26T10:25:20.485Z,99781.50
2022-08-26T10:28:00.685Z,99772.47
2022-08-26T10:30:40.763Z,99760.53
2022-08-26T10:33:15.629Z,99771.47
2022-08-26T10:35:52.548Z,99772.69
2022-08-26T10:38:28.743Z,99776.63
2022-08-26T10:41:00.216Z,99783.44
2022-08-26T10:43:33.215Z,99781.53
2022-08-26T10:46:05.579Z,99783.59
2022-08-26T10:49:00.065Z,99770.00
2022-08-26T10:51:36.708Z,99768.09
2022-08-26T10:54:11.811Z,99749.94
2022-08-26T10:56:57.207Z,99767.88
2022-08-26T10:59:36.806Z,99767.50
2022-08-26T11:02:37.215Z,99763.97
2022-08-26T11:05:18.802Z,99768.00
2022-08-26T11:07:48.656Z,99764.88
2022-08-26T11:10:16.496Z,99751.59
2022-08-26T11:12:45.494Z,99762.94
2022-08-26T11:15:26.566Z,99750.78
2022-08-26T11:17:55.423Z,99749.13
2022-08-26T11:20:33.527Z,99753.72
2022-08-26T11:23:12.996Z,99763.66
2022-08-26T11:26:01.259Z,99730.44
2022-08-26T11:28:50.462Z,99750.88
2022-08-26T11:31:26.519Z,99743.13
2022-08-26T11:34:01.307Z,99752.28
2022-08-26T11:36:47.868Z,99745.16
2022-08-26T11:39:17.981Z,99730.69
2022-08-26T11:41:52.770Z,99740.19
2022-08-26T11:44:29.546Z,99744.25
2022-08-26T11:47:00.263Z,99740.66
2022-08-26T11:49:29.090Z,99734.34
2022-08-26T11:52:16.811Z,99722.78
2022-08-26T11:55:20.315Z,99733.41
2022-08-26T11:57:54.735Z,99734.44
2022-08-26T12:00:36.120Z,99736.00
2022-08-26T12:03:09.539Z,99726.69
2022-08-26T12:05:43.500Z,99719.16
2022-08-26T12:08:16.414Z,99732.25
2022-08-26T12:10:43.556Z,99730.69
2022-08-26T12:13:22.445Z,99730.34
2022-08-26T12:15:58.303Z,99721.22
2022-08-26T12:18:31.778Z,99715.84
2022-08-26T12:21:01.209Z,99721.66
2022-08-26T12:23:36.911Z,99718.97
2022-08-26T12:26:30.780Z,99722.38
2022-08-26T12:28:58.483Z,99718.31
2022-08-26T12:31:39.552Z,99714.09
2022-08-26T12:34:17.445Z,99721.78
2022-08-26T12:36:53.131Z,99712.34
2022-08-26T12:39:31.568Z,99717.94
2022-08-26T12:42:01.156Z,99717.22
2022-08-26T12:44:42.339Z,99710.28
2022-08-26T12:47:41.958Z,99706.38
2022-08-26T12:50:23.740Z,99704.97
2022-08-26T12:53:02.951Z,99705.31
2022-08-26T12:55:32.956Z,99706.13
2022-08-26T12:58:22.555Z,99703.53
2022-08-26T13:00:55.554Z,99699.22
2022-08-26T13:03:38.373Z,99687.06
2022-08-26T13:06:27.923Z,99692.41
2022-08-26T13:09:24.164Z,99702.28
2022-08-26T13:11:53.331Z,99697.56
2022-08-26T13:14:24.079Z,99692.31
2022-08-26T13:16:52.973Z,99693.41
2022-08-26T13:19:29.154Z,99690.19
2022-08-26T13:21:58.460Z,99688.31
2022-08-26T13:24:38.590Z,99679.94
2022-08-26T13:27:08.321Z,99674.28
2022-08-26T13:29:38.177Z,99692.47
2022-08-26T13:32:07.183Z,99683.94
2022-08-26T13:34:37.111Z,99681.41
2022-08-26T13:37:07.023Z,99681.94
2022-08-26T13:39:36.988Z,99663.72
2022-08-26T13:42:04.425Z,99673.97
2022-08-26T13:44:43.083Z,99676.06
2022-08-26T13:47:17.284Z,99660.28
2022-08-26T13:49:44.649Z,99678.22
2022-08-26T13:52:12.697Z,99671.09
2022-08-26T13:54:41.762Z,99662.88
2022-08-26T13:57:10.046Z,99673.88
2022-08-26T13:59:54.666Z,99675.31
2022-08-26T14:02:22.667Z,99673.06
2022-08-26T14:05:02.724Z,99674.00
2022-08-26T14:07:33.126Z,99676.44
2022-08-26T14:10:02.589Z,99675.59
2022-08-26T14:12:29.851Z,99662.16
2022-08-26T14:14:56.974Z,99667.69
2022-08-26T14:17:26.344Z,99680.41
2022-08-26T14:19:58.084Z,99668.88
2022-08-26T14:22:25.393Z,99664.22
2022-08-26T14:24:52.501Z,99664.25
2022-08-26T14:27:19.862Z,99663.63
2022-08-26T14:29:47.027Z,99669.81
2022-08-26T14:32:28.864Z,99673.06
2022-08-26T14:34:56.579Z,99658.56
2022-08-26T14:37:24.171Z,99660.97
2022-08-26T14:39:51.735Z,99669.53
2022-08-26T14:42:27.815Z,99675.25
2022-08-26T14:45:02.165Z,99670.56
2022-08-26T14:47:31.039Z,99660.44
2022-08-26T14:49:58.120Z,99666.84
2022-08-26T14:52:25.675Z,99670.56
2022-08-26T14:54:55.279Z,99670.56
2022-08-26T14:57:22.554Z,99670.69
2022-08-26T14:59:50.594Z,99678.25
2022-08-26T15:02:27.717Z,99673.25
2022-08-26T15:05:02.304Z,99658.28
2022-08-26T15:07:29.315Z,99669.09
2022-08-26T15:09:56.419Z,99671.34
2022-08-26T15:12:23.509Z,99672.06
2022-08-26T15:14:51.190Z,99670.06
2022-08-26T15:17:18.289Z,99676.03
2022-08-26T15:19:45.376Z,99675.00
2022-08-26T15:22:12.898Z,99679.41
2022-08-26T15:24:42.422Z,99666.78
2022-08-26T15:27:09.741Z,99673.63
2022-08-26T15:29:37.625Z,99671.75
2022-08-26T15:32:08.300Z,99642.47
2022-08-26T15:34:35.601Z,99675.91
2022-08-26T15:37:02.870Z,99680.28
2022-08-26T15:39:30.007Z,99678.97
2022-08-26T15:41:57.207Z,99682.22
2022-08-26T15:44:29.209Z,99679.41
2022-08-26T15:46:58.866Z,99653.56
2022-08-26T15:49:27.639Z,99685.53
2022-08-26T15:51:55.144Z,99660.94
2022-08-26T15:54:24.371Z,99688.72
2022-08-26T15:56:52.589Z,99690.13
2022-08-26T15:59:21.688Z,99696.13
2022-08-26T16:01:48.886Z,99685.53
2022-08-26T16:04:16.085Z,99682.38
2022-08-26T16:06:43.707Z,99698.81
2022-08-26T16:09:11.274Z,99689.16
2022-08-26T16:11:38.787Z,99687.81
2022-08-26T16:14:06.373Z,99690.38
2022-08-26T16:16:33.940Z,99701.16
2022-08-26T16:19:06.843Z,99707.59
2022-08-26T16:21:35.458Z,99696.81
2022-08-26T16:24:03.563Z,99687.44
2022-08-26T16:26:33.553Z,99695.00
2022-08-26T16:29:04.956Z,99718.06
2022-08-26T16:31:32.402Z,99705.25
2022-08-26T16:33:59.760Z,99698.53
2022-08-26T16:36:26.915Z,99697.72
2022-08-26T16:38:56.567Z,99705.59
2022-08-26T16:41:25.153Z,99694.38
2022-08-26T16:43:54.722Z,99696.44
2022-08-26T16:46:25.900Z,99710.94
2022-08-26T16:48:57.711Z,99718.00
2022-08-26T16:51:27.341Z,99723.28
2022-08-26T16:53:57.816Z,99721.53
2022-08-26T16:56:30.632Z,99699.66
2022-08-26T16:59:02.922Z,99711.56
2022-08-26T17:01:30.907Z,99723.47
2022-08-26T17:03:58.056Z,99718.72
2022-08-26T17:06:25.178Z,99714.28
2022-08-26T17:08:52.646Z,99713.16
2022-08-26T17:11:19.875Z,99707.00
2022-08-26T17:13:47.401Z,99716.00
2022-08-26T17:16:15.195Z,99720.72
2022-08-26T17:18:42.639Z,99721.97
2022-08-26T17:21:12.408Z,99718.75
2022-08-26T17:23:43.108Z,99712.28
2022-08-26T17:26:12.391Z,99721.38
2022-08-26T17:28:40.103Z,99711.34
2022-08-26T17:31:08.453Z,99721.31
2022-08-26T17:33:36.019Z,99717.16
2022-08-26T17:36:06.557Z,99707.16
2022-08-26T17:38:33.911Z,99716.03
2022-08-26T17:41:01.180Z,99720.63
2022-08-26T17:43:28.554Z,99728.88
2022-08-26T17:46:06.974Z,99724.66
2022-08-26T17:48:36.315Z,99723.25
2022-08-26T17:51:09.709Z,99722.47
2022-08-26T17:53:37.711Z,99721.13
2022-08-26T17:56:10.833Z,99716.00
2022-08-26T17:58:51.351Z,99719.88
2022-08-26T18:01:27.552Z,99716.84
2022-08-26T18:04:00.290Z,99709.50
2022-08-26T18:06:29.380Z,99711.38
2022-08-26T18:08:58.298Z,99714.16
2022-08-26T18:11:29.262Z,99725.72
2022-08-26T18:13:56.544Z,99720.44
2022-08-26T18:16:24.629Z,99719.63
2022-08-26T18:18:53.551Z,99722.38
2022-08-26T18:21:24.618Z,99719.13
2022-08-26T18:23:52.236Z,99717.91
2022-08-26T18:26:35.066Z,99715.91
2022-08-26T18:29:03.387Z,99714.56
2022-08-26T18:31:31.123Z,99713.28
2022-08-26T18:34:02.212Z,99715.66
2022-08-26T18:36:36.912Z,99717.13
2022-08-26T18:39:05.730Z,99722.16
2022-08-26T18:41:34.890Z,99730.72
2022-08-26T18:44:03.538Z,99718.81
2022-08-26T18:46:38.482Z,99716.66
2022-08-26T18:49:09.743Z,99723.13
2022-08-26T18:51:38.105Z,99730.44
2022-08-26T18:54:08.815Z,99727.25
2022-08-26T18:56:37.632Z,99733.72
2022-08-26T18:59:07.646Z,99735.03
2022-08-26T19:01:36.245Z,99737.50
2022-08-26T19:04:05.591Z,99736.56
2022-08-26T19:06:35.720Z,99734.91
2022-08-26T19:09:05.847Z,99720.97
2022-08-26T19:11:37.440Z,99736.28
2022-08-26T19:14:16.050Z,99742.75
2022-08-26T19:16:46.832Z,99742.00
2022-08-26T19:19:15.368Z,99727.59
2022-08-26T19:21:42.778Z,99746.13
2022-08-26T19:24:15.698Z,99749.63
2022-08-26T19:26:48.598Z,99750.69
2022-08-26T19:29:20.644Z,99753.59
2022-08-26T19:31:47.991Z,99729.50
2022-08-26T19:34:16.482Z,99742.66
2022-08-26T19:36:47.839Z,99762.97
2022-08-26T19:39:15.354Z,99762.19
2022-08-26T19:41:42.549Z,99754.88
2022-08-26T19:44:35.978Z,99770.94
2022-08-26T19:47:03.899Z,99759.06
2022-08-26T19:49:31.376Z,99771.47
2022-08-26T19:51:58.555Z,99769.88
2022-08-26T19:54:25.704Z,99774.38
2022-08-26T19:56:52.971Z,99769.38
2022-08-26T19:59:20.821Z,99768.66
2022-08-26T20:02:00.715Z,99773.22
2022-08-26T20:04:30.985Z,99772.59
2022-08-26T20:07:01.348Z,99769.38
2022-08-26T20:09:30.052Z,99780.19
2022-08-26T20:11:57.582Z,99780.34
2022-08-26T20:14:28.672Z,99783.03
2022-08-26T20:16:57.042Z,99778.84
2022-08-26T20:19:42.592Z,99780.59
2022-08-26T20:22:10.345Z,99792.81
2022-08-26T20:24:41.322Z,99779.66
2022-08-26T20:27:10.793Z,99780.81
2022-08-26T20:29:38.521Z,99778.25
2022-08-26T20:32:08.082Z,99787.34
2022-08-26T20:34:41.876Z,99791.72
2022-08-26T20:37:09.371Z,99791.34
2022-08-26T20:39:37.214Z,99790.84
2022-08-26T20:42:06.826Z,99794.47
2022-08-26T20:44:54.685Z,99786.31
2022-08-26T20:47:25.247Z,99790.38
2022-08-26T20:49:56.394Z,99777.75
2022-08-26T20:52:23.635Z,99781.91
2022-08-26T20:54:50.804Z,99794.03
2022-08-26T20:57:18.170Z,99795.75
2022-08-26T20:59:45.337Z,99789.38
2022-08-26T21:02:12.409Z,99791.94
2022-08-26T21:04:39.590Z,99797.53
2022-08-26T21:07:06.858Z,99781.19
2022-08-26T21:09:33.957Z,99786.94
2022-08-26T21:12:01.603Z,99785.44
2022-08-26T21:14:28.849Z,99776.50
2022-08-26T21:16:57.106Z,99771.97
2022-08-26T21:19:24.314Z,99778.06
2022-08-26T21:21:51.553Z,99774.97
2022-08-26T21:24:18.703Z,99776.69
2022-08-26T21:26:46.418Z,99773.44
2022-08-26T21:29:14.443Z,99782.31
2022-08-26T21:31:46.103Z,99777.31
2022-08-26T21:34:19.001Z,99776.81
2022-08-26T21:36:47.401Z,99778.06
2022-08-26T21:39:18.250Z,99777.13
2022-08-26T21:41:47.376Z,99781.75
2022-08-26T21:44:16.645Z,99781.56
2022-08-26T21:46:45.385Z,99784.91
2022-08-26T21:49:16.011Z,99788.13
2022-08-26T21:51:46.169Z,99801.88
2022-08-26T21:54:20.038Z,99784.78
2022-08-26T21:56:52.975Z,99790.63
2022-08-26T21:59:22.637Z,99800.44
2022-08-26T22:01:51.576Z,99807.78
2022-08-26T22:04:18.872Z,99800.91
2022-08-26T22:06:52.893Z,99803.72
2022-08-26T22:09:27.257Z,99789.34
2022-08-26T22:11:57.013Z,99806.44
2022-08-26T22:14:30.634Z,99800.88
2022-08-26T22:17:07.421Z,99797.81
2022-08-26T22:19:46.488Z,99799.56
2022-08-26T22:22:16.979Z,99801.19
2022-08-26T22:24:48.297Z,99804.94
2022-08-26T22:27:15.402Z,99794.59
2022-08-26T22:29:43.617Z,99804.31
2022-08-26T22:32:11.344Z,99801.00
2022-08-26T22:34:40.778Z,99797.72
2022-08-26T22:37:10.520Z,99798.56
2022-08-26T22:39:37.893Z,99800.41
2022-08-26T22:42:08.766Z,99798.34
2022-08-26T22:44:37.617Z,99798.84
2022-08-26T22:47:07.371Z,99793.50
2022-08-26T22:49:37.210Z,99793.94
2022-08-26T22:52:06.732Z,99798.09
2022-08-26T22:54:35.177Z,99794.16
2022-08-26T22:57:02.528Z,99791.19
2022-08-26T22:59:37.770Z,99790.63
2022-08-26T23:02:11.113Z,99788.31
2022-08-26T23:04:40.372Z,99799.06
2022-08-26T23:07:12.375Z,99785.22
2022-08-26T23:09:45.272Z,99789.88
2022-08-26T23:12:12.649Z,99787.59
2022-08-26T23:14:41.458Z,99782.63
2022-08-26T23:17:14.833Z,99792.41
2022-08-26T23:19:42.028Z,99790.91
2022-08-26T23:22:09.188Z,99793.78
2022-08-26T23:24:36.251Z,99793.06
2022-08-26T23:27:03.964Z,99795.00
2022-08-26T23:29:32.231Z,99784.63
2022-08-26T23:31:59.431Z,99794.38
2022-08-26T23:34:45.083Z,99794.44
2022-08-26T23:37:13.934Z,99796.78
2022-08-26T23:39:41.096Z,99802.75
2022-08-26T23:42:08.773Z,99785.41
2022-08-26T23:44:38.346Z,99785.69
2022-08-26T23:47:06.531Z,99790.34
2022-08-26T23:49:34.472Z,99791.84
2022-08-26T23:52:20.465Z,99789.28
2022-08-26T23:54:48.836Z,99791.34
2022-08-26T23:57:20.594Z,99791.63
2022-08-26T23:59:48.676Z,99789.28
